Latest Weather Observations for Dennes Point

IDT60801

Issued at 4:31 pm EDT Monday 22 December 2014 (issued every 30 minutes, with the page automatically refreshed every 10 minutes)

About weather observations | Map of weather stations | Latest weather observations for TAS | Other Formats
Station Details ID: 094255 Name: DENNES POINT Lat: -43.06 Lon: 147.36 Height: 5.67 m
Data from the previous 72 hours. | See also: Recent months at Dennes Point
Date/Time
EDT
Temp
°C
App
Temp
°C
Dew
Point
Rel
Hum
%
Delta-T
°C
Wind Press
QNH
hPa
Press
MSL
hPa
Rain
since 9 am
mm
Dir
 
Spd
km/h
Gust
km/h
Spd
kts
Gust
kts
22/04:30pm 18.7 16.2 14.0 74 2.7 E 20 32 11 17 1012.7 1012.6 0.0
22/04:00pm 18.9 15.7 14.2 74 2.7 ENE 24 30 13 16 1013.4 1013.4 0.0
22/03:30pm 18.5 16.1 12.7 69 3.2 E 17 26 9 14 1013.6 1013.6 0.0
22/03:00pm 18.0 16.2 12.2 69 3.2 ESE 13 20 7 11 1014.0 1014.0 0.0
22/02:30pm 18.7 16.9 12.0 65 3.7 ESE 13 19 7 10 1014.4 1014.4 0.0
22/02:00pm 19.1 17.6 11.9 63 4.0 ESE 11 15 6 8 1014.6 1014.6 0.0
22/01:30pm 19.1 17.5 11.4 61 4.2 ESE 11 17 6 9 1014.8 1014.8 0.0
22/01:00pm 19.1 17.2 11.9 63 4.0 ESE 13 17 7 9 1015.0 1015.0 0.0
22/12:30pm 18.1 15.3 11.4 65 3.7 ESE 17 20 9 11 1015.2 1015.2 0.0
22/12:00pm 17.9 14.5 11.2 65 3.6 ESE 20 24 11 13 1015.3 1015.3 0.0
22/11:30am 18.1 14.7 11.4 65 3.7 ESE 20 26 11 14 1015.6 1015.6 0.0
22/11:00am 17.5 14.6 11.1 66 3.5 ESE 17 22 9 12 1015.7 1015.7 0.0
22/10:30am 16.9 13.9 10.7 67 3.3 ESE 17 22 9 12 1015.9 1015.9 0.0
22/10:00am 16.2 13.9 10.5 69 3.0 ESE 13 17 7 9 1016.1 1016.1 0.0
22/09:30am 16.1 13.5 10.8 71 2.8 ESE 15 19 8 10 1016.2 1016.2 0.0
22/09:00am 16.1 13.9 10.8 71 2.8 ESE 13 19 7 10 1016.1 1016.1 0.0
22/08:30am 14.9 12.5 10.1 73 2.5 ESE 13 15 7 8 1015.9 1015.9 0.0
22/08:00am 15.0 12.6 10.2 73 2.5 E 13 17 7 9 1015.7 1015.7 0.0
22/07:30am 14.4 11.8 10.6 78 2.0 E 15 17 8 9 1015.6 1015.6 0.0
22/07:00am 14.2 11.7 11.2 82 1.6 ENE 15 19 8 10 1015.4 1015.4 0.0
22/06:30am 13.0 12.9 10.7 86 1.2 S 2 4 1 2 1015.1 1015.1 0.0
22/06:00am 13.5 12.1 11.0 85 1.3 E 9 13 5 7 1014.6 1014.6 0.0
22/05:30am 12.8 11.9 10.7 87 1.1 ESE 6 7 3 4 1014.3 1014.3 0.0
22/05:00am 12.2 11.4 9.8 85 1.2 ESE 4 6 2 3 1014.1 1014.1 0.0
22/04:30am 12.1 10.8 10.0 87 1.1 SE 7 9 4 5 1014.0 1014.0 0.0
22/04:00am 11.8 10.9 9.4 85 1.2 WNW 4 4 2 2 1014.0 1014.0 0.0
22/03:30am 12.2 10.8 9.6 84 1.3 SSE 7 11 4 6 1013.9 1013.9 0.0
22/03:00am 12.7 11.5 9.7 82 1.5 ESE 6 9 3 5 1014.0 1014.0 0.0
22/02:30am 13.2 12.4 9.6 79 1.8 SSW 4 6 2 3 1013.9 1013.9 0.0
22/02:00am 13.3 10.7 9.5 78 1.9 SW 13 17 7 9 1013.9 1013.9 0.0
22/01:30am 14.5 11.3 9.9 74 2.4 SW 17 24 9 13 1013.9 1013.9 0.0
22/01:00am 15.0 12.4 9.4 69 2.9 W 13 20 7 11 1013.8 1013.8 0.0
22/12:30am 15.5 10.9 9.6 68 3.1 W 24 30 13 16 1013.6 1013.6 0.0
22/12:00am 15.8 11.6 9.7 67 3.2 W 22 28 12 15 1013.5 1013.5 0.0
 
Date/Time
EDT
Temp
°C
App
Temp
°C
Dew
Point
Rel
Hum
%
Delta-T
°C
Wind Press
QNH
hPa
Press
MSL
hPa
Rain
since 9 am
mm
Dir
 
Spd
km/h
Gust
km/h
Spd
kts
Gust
kts
21/11:30pm 15.7 11.5 9.8 68 3.1 WSW 22 28 12 15 1013.5 1013.5 0.0
21/11:00pm 15.9 12.3 10.4 70 2.9 WSW 20 26 11 14 1013.5 1013.5 0.0
21/10:30pm 16.3 13.4 11.0 71 2.8 WSW 17 24 9 13 1013.5 1013.5 0.0
21/10:00pm 16.2 14.7 11.8 75 2.4 S 11 17 6 9 1013.4 1013.4 0.0
21/09:30pm 15.6 13.9 12.5 82 1.7 ESE 13 15 7 8 1012.5 1012.4 0.0
21/09:00pm 15.1 14.9 11.9 81 1.7 E 4 6 2 3 1012.0 1011.9 0.0
21/08:30pm 16.0 15.4 12.4 79 2.0 E 7 11 4 6 1011.7 1011.6 0.0
21/08:00pm 15.9 14.9 12.3 79 2.0 ENE 9 15 5 8 1011.4 1011.3 0.0
21/07:30pm 16.6 14.5 12.4 76 2.3 ESE 15 19 8 10 1011.1 1011.0 0.0
21/07:00pm 17.0 14.1 12.3 74 2.6 ESE 19 20 10 11 1010.6 1010.5 0.0
21/06:30pm 17.0 13.9 11.7 71 2.9 ESE 19 24 10 13 1010.3 1010.2 0.0
21/06:00pm 17.2 13.5 11.5 69 3.1 ESE 22 30 12 16 1010.0 1009.9 0.0
21/05:30pm 17.8 14.1 11.4 66 3.5 ESE 22 30 12 16 1009.8 1009.7 0.0
21/05:00pm 17.3 12.7 10.9 66 3.4 ESE 26 32 14 17 1009.9 1009.8 0.0
21/04:30pm 20.1 16.8 11.6 58 4.7 SE 20 33 11 18 1009.7 1009.6 0.0
21/04:00pm 20.9 17.4 10.1 50 5.8 SSE 19 35 10 19 1009.9 1009.8 0.0
21/03:30pm 20.6 19.3 12.6 60 4.5 ESE 11 15 6 8 1009.5 1009.4 0.0
21/03:00pm 21.5 19.1 11.5 53 5.6 ESE 15 19 8 10 1009.4 1009.3 0.0
21/02:30pm 20.9 17.7 11.3 54 5.3 ESE 19 20 10 11 1009.3 1009.2 0.0
21/02:00pm 20.9 18.5 11.3 54 5.3 ESE 15 19 8 10 1009.8 1009.7 0.0
21/01:30pm 21.1 19.3 10.9 52 5.6 ESE 11 17 6 9 1010.4 1010.3 0.0
21/01:00pm 20.6 19.3 11.2 55 5.2 NNE 9 13 5 7 1010.4 1010.3 0.0
21/12:30pm 20.0 17.8 10.7 55 5.1 NNE 13 17 7 9 1010.8 1010.7 0.0
21/12:00pm 19.5 17.4 11.0 58 4.6 NNE 13 15 7 8 1011.0 1010.9 0.0
21/11:30am 19.4 18.0 10.9 58 4.6 NNE 9 13 5 7 1011.7 1011.6 0.0
21/11:00am 17.9 15.4 9.8 59 4.3 NE 13 15 7 8 1012.1 1012.0 0.0
21/10:30am 17.4 14.5 9.6 60 4.1 NNE 15 17 8 9 1012.7 1012.6 0.0
21/10:00am 16.7 13.7 10.5 67 3.3 NNE 17 19 9 10 1013.4 1013.4 0.0
21/09:30am 16.3 13.9 10.2 67 3.2 NNE 13 17 7 9 1013.8 1013.8 0.0
21/09:00am 16.1 14.6 10.4 69 3.0 NNE 9 13 5 7 1014.1 1014.1 0.0
21/08:30am 15.5 14.4 10.5 72 2.6 N 7 13 4 7 1014.1 1014.1 0.0
21/08:00am 14.7 13.5 9.7 72 2.6 NW 6 7 3 4 1013.9 1013.9 0.0
21/07:30am 13.9 13.9 9.9 77 2.1 CALM 0 0 0 0 1014.3 1014.3 0.0
21/07:00am 12.7 12.2 9.3 80 1.7 SSW 2 4 1 2 1014.3 1014.3 0.0
21/06:30am 12.7 12.0 9.9 83 1.4 SSW 4 6 2 3 1014.6 1014.6 0.0
21/06:00am 11.8 10.4 8.8 82 1.5 WSW 6 7 3 4 1015.4 1015.4 0.0
21/05:30am 12.9 12.0 9.2 78 1.9 WSW 4 6 2 3 1015.2 1015.2 0.0
21/05:00am 13.9 12.5 9.5 75 2.3 NNE 7 11 4 6 1014.7 1014.7 0.0
21/04:30am 13.7 11.8 9.2 74 2.3 NE 9 11 5 6 1014.3 1014.3 0.0
21/04:00am 13.4 11.5 9.1 75 2.2 NE 9 15 5 8 1014.2 1014.2 0.0
21/03:30am 13.0 11.6 9.6 80 1.7 ENE 7 9 4 5 1014.2 1014.2 0.0
21/03:00am 12.0 12.0 9.7 86 1.2 CALM 0 0 0 0 1014.5 1014.5 0.0
21/02:30am 11.9 11.1 9.8 87 1.1 SSW 4 6 2 3 1014.8 1014.8 0.0
21/02:00am 11.6 10.4 9.7 88 1.0 SSW 6 6 3 3 1015.1 1015.1 0.0
21/01:30am 11.1 9.7 9.0 87 1.0 SW 6 6 3 3 1015.5 1015.5 0.0
21/01:00am 11.1 9.8 7.8 80 1.6 SSE 4 6 2 3 1015.8 1015.8 0.0
21/12:30am 12.2 11.9 8.7 79 1.7 CALM 0 0 0 0 1016.0 1016.0 0.0
21/12:00am 11.9 10.8 8.4 79 1.7 SE 4 6 2 3 1016.0 1016.0 0.0
 
Date/Time
EDT
Temp
°C
App
Temp
°C
Dew
Point
Rel
Hum
%
Delta-T
°C
Wind Press
QNH
hPa
Press
MSL
hPa
Rain
since 9 am
mm
Dir
 
Spd
km/h
Gust
km/h
Spd
kts
Gust
kts
20/11:30pm 12.2 11.9 8.5 78 1.8 CALM 0 2 0 1 1016.3 1016.3 0.0
20/11:00pm 12.0 11.2 8.3 78 1.8 SSE 2 6 1 3 1016.1 1016.1 0.0
20/10:30pm 12.2 11.4 8.3 77 1.9 SSE 2 6 1 3 1016.2 1016.2 0.0
20/10:00pm 12.6 10.1 8.3 75 2.1 S 11 17 6 9 1016.0 1016.0 0.0
20/09:30pm 12.6 10.0 7.9 73 2.3 SSW 11 19 6 10 1015.9 1015.9 0.0
20/09:00pm 13.1 9.8 8.0 71 2.5 SSW 15 22 8 12 1015.4 1015.4 0.0
20/08:30pm 13.6 10.3 8.0 69 2.8 S 15 24 8 13 1015.1 1015.1 0.0
20/08:00pm 14.4 10.4 8.4 67 3.0 S 19 30 10 16 1014.7 1014.7 0.0
20/07:30pm 14.8 9.2 8.7 67 3.1 S 28 43 15 23 1014.2 1014.2 0.0
20/07:00pm 15.1 11.1 8.1 63 3.5 S 19 30 10 16 1013.8 1013.8 0.0
20/06:30pm 17.3 12.7 8.2 55 4.6 S 22 35 12 19 1013.5 1013.5 0.0
20/06:00pm 17.0 12.3 7.9 55 4.6 S 22 33 12 18 1013.1 1013.0 0.0
20/05:30pm 18.2 13.3 8.5 53 5.0 SSW 24 35 13 19 1012.8 1012.7 0.0
20/05:00pm 19.3 15.3 9.2 52 5.3 S 20 30 11 16 1012.7 1012.6 0.0
20/04:30pm 18.6 14.6 9.1 54 5.0 S 20 32 11 17 1012.7 1012.6 0.0
20/04:00pm 18.7 14.7 9.2 54 5.0 S 20 32 11 17 1012.5 1012.4 0.0
20/03:30pm 19.5 16.5 7.9 47 6.0 SSW 13 20 7 11 1012.3 1012.2 0.0
20/03:00pm 19.0 15.4 8.4 50 5.5 SW 17 30 9 16 1012.5 1012.4 0.0
20/02:30pm 19.8 15.0 7.5 45 6.3 WSW 22 32 12 17 1012.3 1012.2 0.0
20/02:00pm 19.9 15.4 7.0 43 6.5 WSW 20 32 11 17 1012.2 1012.1 0.0
20/01:30pm 19.2 13.8 6.3 43 6.4 SW 24 35 13 19 1012.1 1012.0 0.0
20/01:00pm 19.9 14.6 7.0 43 6.5 SW 24 39 13 21 1012.0 1011.9 0.0
20/12:30pm 20.4 15.2 7.4 43 6.7 WSW 24 32 13 17 1012.0 1011.9 0.0
20/12:00pm 21.3 16.3 9.5 47 6.3 W 26 39 14 21 1012.0 1011.9 0.0
20/11:30am 20.1 13.7 8.4 47 6.1 WSW 32 44 17 24 1012.0 1011.9 0.0
20/11:00am 18.1 13.3 7.5 50 5.4 WSW 22 35 12 19 1012.0 1011.9 0.0
20/10:30am 17.8 16.6 9.7 59 4.3 W 6 9 3 5 1011.9 1011.8 0.0
20/10:00am 16.0 15.1 11.4 74 2.5 E 7 9 4 5 1011.9 1011.8 0.0
20/09:30am 16.4 15.6 11.6 73 2.6 ENE 7 11 4 6 1011.8 1011.7 0.0
20/09:00am 16.7 16.4 12.7 77 2.2 NNE 6 13 3 7 1011.6 1011.5 0.2
20/08:30am 15.8 13.9 11.8 77 2.2 N 13 19 7 10 1011.2 1011.1 0.2
20/08:00am 16.1 15.1 11.1 72 2.7 WNW 7 13 4 7 1010.9 1010.8 0.2
20/07:30am 15.2 12.8 10.0 71 2.7 NNW 13 17 7 9 1010.4 1010.3 0.2
20/07:00am 14.4 13.4 9.0 70 2.7 NNW 4 6 2 3 1010.1 1010.0 0.2
20/06:30am 14.6 13.3 9.2 70 2.8 N 6 7 3 4 1009.8 1009.7 0.2
20/06:00am 14.5 12.6 9.1 70 2.8 N 9 11 5 6 1009.7 1009.6 0.2
20/05:30am 14.2 12.6 8.8 70 2.7 NNW 7 13 4 7 1009.6 1009.5 0.2
20/05:00am 14.1 12.1 8.5 69 2.8 NW 9 15 5 8 1009.6 1009.5 0.2
20/04:30am 14.0 12.4 8.2 68 2.9 N 6 9 3 5 1009.5 1009.4 0.2
20/04:00am 14.1 12.3 8.1 67 3.0 N 7 13 4 7 1009.7 1009.6 0.2
20/03:30am 14.0 12.1 7.5 65 3.2 NNW 7 11 4 6 1010.1 1010.0 0.2
20/03:00am 13.9 11.6 7.4 65 3.2 NW 9 17 5 9 1010.5 1010.4 0.2
20/02:30am 13.9 11.5 7.2 64 3.3 NNW 9 13 5 7 1010.9 1010.8 0.2
20/02:00am 14.0 10.6 7.8 66 3.1 N 15 20 8 11 1011.2 1011.1 0.2
20/01:30am 13.8 11.0 7.1 64 3.3 NW 11 19 6 10 1011.8 1011.7 0.2
20/01:00am 13.8 10.2 6.9 63 3.3 NNW 15 19 8 10 1012.1 1012.0 0.2
20/12:30am 13.9 10.7 7.0 63 3.4 NNW 13 15 7 8 1012.5 1012.4 0.2
20/12:00am 14.2 11.4 7.0 62 3.5 NNW 11 19 6 10 1012.9 1012.8 0.2
 
Date/Time
EDT
Temp
°C
App
Temp
°C
Dew
Point
Rel
Hum
%
Delta-T
°C
Wind Press
QNH
hPa
Press
MSL
hPa
Rain
since 9 am
mm
Dir
 
Spd
km/h
Gust
km/h
Spd
kts
Gust
kts
19/11:30pm 14.1 10.7 6.0 58 3.9 WNW 13 20 7 11 1013.2 1013.2 0.2
19/11:00pm 14.3 11.9 5.1 54 4.3 NW 7 13 4 7 1013.5 1013.5 0.2
19/10:30pm 14.4 11.6 5.0 53 4.4 NW 9 19 5 10 1013.6 1013.6 0.2
19/10:00pm 14.4 10.8 5.0 53 4.4 WNW 13 20 7 11 1014.0 1014.0 0.2
19/09:30pm 14.5 9.5 4.8 52 4.5 W 20 26 11 14 1013.8 1013.8 0.2
19/09:00pm 15.0 9.0 5.2 52 4.6 W 26 33 14 18 1013.6 1013.6 0.2
19/08:30pm 15.3 10.8 4.4 48 5.1 W 17 22 9 12 1013.4 1013.4 0.2
19/08:00pm 15.6 10.7 4.3 47 5.3 WNW 19 26 10 14 1013.3 1013.3 0.2
19/07:30pm 15.7 11.3 5.0 49 5.1 W 17 20 9 11 1013.3 1013.3 0.2
19/07:00pm 15.9 11.1 4.6 47 5.3 W 19 24 10 13 1012.9 1012.8 0.2
19/06:30pm 16.1 10.1 5.1 48 5.2 WSW 26 32 14 17 1012.7 1012.6 0.2
19/06:00pm 16.4 11.3 4.1 44 5.7 W 20 32 11 17 1012.5 1012.4 0.2
19/05:30pm 16.6 11.4 3.7 42 6.0 WSW 20 30 11 16 1012.3 1012.2 0.2
19/05:00pm 17.1 12.0 3.1 39 6.4 WSW 19 24 10 13 1012.4 1012.3 0.2

Other Formats:

Comma delimited format used in spreadsheet applications
http://www.bom.gov.au/fwo/IDT60801/IDT60801.94988.axf

JavaScript Object Notation format (JSON) in row-major order
http://www.bom.gov.au/fwo/IDT60801/IDT60801.94988.json